Time;durP1;ratioP1;P1;durP2;ratioP2;P2;SDS_P1;SDS_P2;PMS_P1;PMS_P2;Temp;Humidity;BMP_temperature;BMP_pressure;BME280_temperature;BME280_humidity;BME280_pressure;Samples;Min_cycle;Max_cycle;Signal;HPM_P1;HPM_P2
2023/08/25 00:01:40;;;;;;;19.10;14.00;;;22.30;1.00;;;;;;5008252;28;20182;-77
2023/08/25 00:04:05;;;;;;;17.10;14.70;;;22.30;1.00;;;;;;4995928;28;20279;-83
2023/08/25 00:06:31;;;;;;;16.20;14.50;;;22.30;1.00;;;;;;5004926;28;20256;-79
2023/08/25 00:08:56;;;;;;;18.70;14.13;;;22.30;1.00;;;;;;5009988;28;20174;-76
2023/08/25 00:11:22;;;;;;;18.07;14.53;;;22.40;1.00;;;;;;5009713;28;20687;-76
2023/08/25 00:13:47;;;;;;;19.30;16.10;;;22.40;1.00;;;;;;5009669;28;20192;-77
2023/08/25 00:16:12;;;;;;;18.90;15.60;;;22.40;1.00;;;;;;5010092;28;20212;-77
2023/08/25 00:18:38;;;;;;;17.33;15.13;;;22.30;1.00;;;;;;5010299;28;20193;-77
2023/08/25 00:21:04;;;;;;;18.47;15.50;;;22.30;1.00;;;;;;5008147;28;20273;-77
2023/08/25 00:23:30;;;;;;;17.83;15.20;;;22.20;1.00;;;;;;5009811;28;20197;-77
2023/08/25 00:25:56;;;;;;;17.80;15.90;;;22.20;1.00;;;;;;5012717;28;20205;-76
2023/08/25 00:28:21;;;;;;;18.47;15.50;;;22.30;1.00;;;;;;5009945;28;20791;-79
2023/08/25 00:30:50;;;;;;;16.83;15.13;;;22.20;1.00;;;;;;5009854;28;20228;-76
2023/08/25 00:33:15;;;;;;;16.77;14.23;;;22.10;1.00;;;;;;5008254;28;20668;-75
2023/08/25 00:35:42;;;;;;;15.57;13.63;;;22.10;1.00;;;;;;5015255;28;20467;-79
2023/08/25 00:38:07;;;;;;;19.30;15.30;;;22.10;1.00;;;;;;5008057;28;20182;-77
2023/08/25 00:40:37;;;;;;;16.90;14.10;;;22.20;1.00;;;;;;5008179;28;20452;-77
2023/08/25 00:43:03;;;;;;;18.20;14.93;;;22.10;1.00;;;;;;5009490;28;20202;-78
2023/08/25 00:45:29;;;;;;;17.30;14.73;;;22.10;1.00;;;;;;5008380;28;20448;-78
2023/08/25 00:47:55;;;;;;;16.63;14.90;;;22.10;1.00;;;;;;5009392;28;20432;-75
2023/08/25 00:50:20;;;;;;;17.17;14.70;;;22.10;1.00;;;;;;5008292;28;20933;-78
2023/08/25 00:52:46;;;;;;;16.63;14.67;;;22.20;1.00;;;;;;5001901;28;20182;-77
2023/08/25 00:55:11;;;;;;;16.70;14.90;;;22.20;1.00;;;;;;5014887;28;20192;-77
2023/08/25 00:57:37;;;;;;;16.37;14.70;;;22.20;1.00;;;;;;5008611;28;20197;-76
2023/08/25 01:00:04;;;;;;;17.10;14.93;;;22.20;1.00;;;;;;5007990;28;20206;-80
2023/08/25 01:02:31;;;;;;;16.07;14.00;;;22.10;1.00;;;;;;5008008;28;20564;-77
2023/08/25 01:04:57;;;;;;;15.90;12.30;;;22.10;1.00;;;;;;5007742;28;20429;-79
2023/08/25 01:07:24;;;;;;;14.80;11.40;;;22.00;1.00;;;;;;5008918;28;20692;-74
2023/08/25 01:09:50;;;;;;;14.60;11.57;;;22.00;1.00;;;;;;5008832;28;20174;-77
2023/08/25 01:12:39;;;;;;;15.30;11.50;;;22.10;1.00;;;;;;5008887;28;20441;-77
2023/08/25 01:15:17;;;;;;;18.97;11.67;;;22.30;1.00;;;;;;5003734;28;20556;-77
2023/08/25 01:17:48;;;;;;;16.50;11.50;;;22.30;1.00;;;;;;5006558;28;20448;-77
2023/08/25 01:20:15;;;;;;;12.80;11.50;;;22.30;1.00;;;;;;5007657;28;20974;-76
2023/08/25 01:22:52;;;;;;;14.87;11.87;;;23.00;1.00;;;;;;5009115;28;20468;-78
2023/08/25 01:25:25;;;;;;;13.20;11.80;;;22.40;1.00;;;;;;5011916;28;20493;-76
2023/08/25 01:27:51;;;;;;;14.90;12.40;;;22.40;1.00;;;;;;5007330;28;20822;-77
2023/08/25 01:30:17;;;;;;;15.10;11.20;;;22.40;1.00;;;;;;5009480;28;20460;-77
2023/08/25 01:32:43;;;;;;;13.67;11.90;;;22.40;1.00;;;;;;5008656;28;20476;-79
2023/08/25 01:35:14;;;;;;;19.97;11.67;;;;;;;;;;5007415;28;20182;-78
2023/08/25 01:37:47;;;;;;;15.07;11.70;;;22.40;1.00;;;;;;5009135;28;20921;-76
2023/08/25 01:40:20;;;;;;;12.70;11.00;;;22.40;1.00;;;;;;5007893;28;21002;-76
2023/08/25 01:42:49;;;;;;;12.43;10.77;;;22.40;1.00;;;;;;5008450;28;20567;-79
2023/08/25 01:45:17;;;;;;;12.57;10.53;;;22.40;1.00;;;;;;5002470;28;20425;-80
2023/08/25 01:47:45;;;;;;;11.00;9.77;;;22.40;1.00;;;;;;5008808;28;20440;-77
2023/08/25 01:50:13;;;;;;;15.00;12.07;;;22.40;1.00;;;;;;5007754;28;20912;-79
2023/08/25 01:52:39;;;;;;;14.77;11.30;;;22.40;1.00;;;;;;5007639;28;20445;-76
2023/08/25 01:55:05;;;;;;;13.20;10.73;;;22.70;1.00;;;;;;5012034;28;20554;-77
2023/08/25 01:57:30;;;;;;;13.27;10.63;;;22.30;1.00;;;;;;5006799;28;20256;-77
2023/08/25 01:59:56;;;;;;;12.27;10.60;;;22.30;1.00;;;;;;5006292;28;20961;-76
2023/08/25 02:02:21;;;;;;;11.87;10.60;;;22.30;1.00;;;;;;5008600;28;20197;-77
2023/08/25 02:04:47;;;;;;;12.07;10.77;;;22.20;1.00;;;;;;5008037;28;20251;-79
2023/08/25 02:07:12;;;;;;;13.70;9.10;;;22.40;1.00;;;;;;5008104;28;20215;-80
2023/08/25 02:09:38;;;;;;;11.73;9.00;;;22.20;1.00;;;;;;5008961;28;20264;-76
2023/08/25 02:12:03;;;;;;;12.13;9.57;;;24.40;1.00;;;;;;5009377;28;20206;-77
2023/08/25 02:14:29;;;;;;;15.43;9.67;;;22.30;1.00;;;;;;5008022;28;20607;-76
2023/08/25 02:16:54;;;;;;;13.50;9.03;;;22.20;1.00;;;;;;5008569;28;20206;-79
2023/08/25 02:19:20;;;;;;;13.47;10.70;;;22.20;1.00;;;;;;5007952;28;20193;-76
2023/08/25 02:21:46;;;;;;;11.40;9.90;;;22.20;1.00;;;;;;5008124;28;20236;-76
2023/08/25 02:24:11;;;;;;;13.10;9.43;;;22.20;1.00;;;;;;5009358;28;20206;-77
2023/08/25 02:26:37;;;;;;;11.20;9.20;;;22.20;1.00;;;;;;5012235;28;20217;-78
2023/08/25 02:29:03;;;;;;;12.30;9.37;;;22.20;1.00;;;;;;5007215;28;20182;-76
2023/08/25 02:31:28;;;;;;;12.87;9.73;;;22.20;1.00;;;;;;5008511;28;20288;-76
2023/08/25 02:33:54;;;;;;;11.13;9.60;;;22.10;1.00;;;;;;5007912;28;20224;-76
2023/08/25 02:36:19;;;;;;;13.57;9.73;;;22.10;1.00;;;;;;5008488;28;20201;-79
2023/08/25 02:38:45;;;;;;;12.30;10.53;;;22.10;1.00;;;;;;5012914;28;20189;-77
2023/08/25 02:41:10;;;;;;;14.33;9.90;;;22.00;1.00;;;;;;5012279;28;20706;-79
2023/08/25 02:43:36;;;;;;;12.10;10.40;;;24.80;1.00;;;;;;5010180;28;20214;-77
2023/08/25 02:46:01;;;;;;;11.00;9.90;;;21.90;1.00;;;;;;5011466;28;20206;-76
2023/08/25 02:48:27;;;;;;;16.67;9.63;;;21.90;1.00;;;;;;5012143;28;20201;-74
2023/08/25 02:50:52;;;;;;;15.97;9.00;;;21.90;1.00;;;;;;5010138;28;20803;-77
2023/08/25 02:53:18;;;;;;;15.60;9.53;;;21.90;1.00;;;;;;5013013;28;20544;-78
2023/08/25 02:55:43;;;;;;;15.20;9.83;;;21.90;1.00;;;;;;5010033;28;20209;-78
2023/08/25 02:58:09;;;;;;;11.50;10.13;;;21.90;1.00;;;;;;5009299;28;20265;-77
2023/08/25 03:00:34;;;;;;;12.23;9.83;;;21.90;1.00;;;;;;5008503;28;20197;-78
2023/08/25 03:03:00;;;;;;;12.80;10.20;;;21.90;1.00;;;;;;5011972;28;20255;-77
2023/08/25 03:05:25;;;;;;;12.03;10.73;;;21.80;1.00;;;;;;5007830;28;20661;-77
2023/08/25 03:07:54;;;;;;;13.37;10.03;;;21.80;1.00;;;;;;5009163;28;20174;-77
2023/08/25 03:10:20;;;;;;;14.50;10.50;;;21.80;1.00;;;;;;5011310;28;20718;-77
2023/08/25 03:12:45;;;;;;;13.40;11.17;;;21.90;1.00;;;;;;5011300;28;20539;-78
2023/08/25 03:15:11;;;;;;;12.33;10.27;;;21.80;1.00;;;;;;5009618;28;20201;-78
2023/08/25 03:17:37;;;;;;;12.40;9.90;;;21.80;1.00;;;;;;5011342;28;20193;-77
2023/08/25 03:20:03;;;;;;;13.20;10.10;;;21.80;1.00;;;;;;5009398;28;20182;-77
2023/08/25 03:22:29;;;;;;;11.13;9.60;;;21.80;1.00;;;;;;5010910;28;20174;-77
2023/08/25 03:24:54;;;;;;;14.70;9.40;;;21.70;1.00;;;;;;5010900;28;20499;-77
2023/08/25 03:27:20;;;;;;;12.73;9.40;;;21.70;1.00;;;;;;5009404;28;20564;-78
2023/08/25 03:29:45;;;;;;;11.67;8.67;;;21.70;1.00;;;;;;5010153;28;20189;-78
2023/08/25 03:32:11;;;;;;;13.20;8.70;;;21.60;1.00;;;;;;5010605;28;20204;-76
2023/08/25 03:34:36;;;;;;;10.43;8.97;;;21.70;1.00;;;;;;5007605;28;20190;-77
2023/08/25 03:37:03;;;;;;;9.80;8.67;;;21.60;1.00;;;;;;5007597;28;20206;-80
2023/08/25 03:39:29;;;;;;;9.90;8.60;;;21.60;1.00;;;;;;5003782;28;20177;-78
2023/08/25 03:41:55;;;;;;;12.07;8.20;;;21.70;1.00;;;;;;5007909;28;20587;-79
2023/08/25 03:44:20;;;;;;;9.67;8.57;;;21.70;1.00;;;;;;5010080;28;20627;-79
2023/08/25 03:46:46;;;;;;;11.73;8.40;;;21.70;1.00;;;;;;5009885;28;20711;-77
2023/08/25 03:49:11;;;;;;;12.00;8.40;;;21.70;1.00;;;;;;5008860;28;20182;-76
2023/08/25 03:51:37;;;;;;;9.83;8.20;;;21.60;1.00;;;;;;5008351;28;20175;-77
2023/08/25 03:54:02;;;;;;;13.87;8.20;;;21.70;1.00;;;;;;5010148;28;20556;-75
2023/08/25 03:56:28;;;;;;;10.10;8.33;;;;;;;;;;5010732;28;20580;-77
2023/08/25 03:58:54;;;;;;;16.13;8.73;;;21.60;1.00;;;;;;5006759;28;20661;-77
2023/08/25 04:01:19;;;;;;;10.43;8.77;;;21.60;1.00;;;;;;5008623;28;20555;-75
2023/08/25 04:03:45;;;;;;;14.90;8.47;;;21.70;1.00;;;;;;5010237;28;20205;-77
2023/08/25 04:06:10;;;;;;;14.53;8.90;;;21.60;1.00;;;;;;5010088;28;20206;-77
2023/08/25 04:08:36;;;;;;;11.73;8.77;;;21.60;1.00;;;;;;5009724;28;20576;-77
2023/08/25 04:11:01;;;;;;;14.23;8.93;;;21.50;1.00;;;;;;5008712;28;20273;-78
2023/08/25 04:13:27;;;;;;;10.87;9.10;;;21.50;1.00;;;;;;5011151;28;20544;-77
2023/08/25 04:16:01;;;;;;;10.73;8.77;;;21.50;1.00;;;;;;5008919;28;20222;-77
2023/08/25 04:18:27;;;;;;;10.83;8.80;;;21.50;1.00;;;;;;5007747;28;20235;-78
2023/08/25 04:20:52;;;;;;;13.60;9.30;;;21.40;1.00;;;;;;5007545;28;20449;-77
2023/08/25 04:23:18;;;;;;;11.80;8.37;;;21.50;1.00;;;;;;5008674;28;20754;-80
2023/08/25 04:25:43;;;;;;;11.07;8.33;;;21.50;1.00;;;;;;5010847;28;20237;-77
2023/08/25 04:28:10;;;;;;;9.80;8.30;;;21.50;1.00;;;;;;5008118;28;20247;-77
2023/08/25 04:30:35;;;;;;;11.23;8.67;;;21.40;1.00;;;;;;5007677;28;20890;-77
2023/08/25 04:33:01;;;;;;;8.87;7.37;;;21.40;1.00;;;;;;5007654;28;21034;-77
2023/08/25 04:35:27;;;;;;;9.00;7.47;;;21.40;1.00;;;;;;5007674;28;20187;-81
2023/08/25 04:37:52;;;;;;;11.43;7.40;;;21.40;1.00;;;;;;5005857;28;20813;-76
2023/08/25 04:40:18;;;;;;;10.97;8.30;;;21.70;1.00;;;;;;5008890;28;20268;-77
2023/08/25 04:42:44;;;;;;;8.50;7.27;;;21.60;1.00;;;;;;5008787;28;20228;-78
2023/08/25 04:45:10;;;;;;;14.10;7.80;;;21.70;1.00;;;;;;5009459;28;20660;-78
2023/08/25 04:47:36;;;;;;;9.73;7.20;;;21.70;1.00;;;;;;5006581;28;20182;-79
2023/08/25 04:50:03;;;;;;;10.20;7.90;;;21.90;1.00;;;;;;5009289;28;20503;-79
2023/08/25 04:52:33;;;;;;;10.70;7.60;;;22.00;1.00;;;;;;5008939;28;20441;-78
2023/08/25 04:54:58;;;;;;;9.17;7.50;;;22.10;1.00;;;;;;5011130;28;20443;-77
2023/08/25 04:57:24;;;;;;;9.73;7.30;;;22.20;1.00;;;;;;5008559;28;20465;-78
2023/08/25 04:59:49;;;;;;;12.17;7.83;;;22.30;1.00;;;;;;5007373;28;21181;-78
2023/08/25 05:02:17;;;;;;;10.20;7.80;;;22.30;1.00;;;;;;5008386;28;20189;-76
2023/08/25 05:04:42;;;;;;;8.90;7.10;;;22.30;1.00;;;;;;5007601;28;20217;-77
2023/08/25 05:07:08;;;;;;;10.83;8.00;;;22.30;1.00;;;;;;5009034;28;20456;-80
2023/08/25 05:09:33;;;;;;;7.47;6.40;;;22.50;1.00;;;;;;5008152;28;20275;-76
2023/08/25 05:11:59;;;;;;;12.27;7.80;;;22.60;1.00;;;;;;5008377;28;20556;-77
2023/08/25 05:14:24;;;;;;;7.87;6.90;;;22.80;1.00;;;;;;5008033;28;20658;-79
2023/08/25 05:16:51;;;;;;;9.70;7.27;;;23.00;1.00;;;;;;5005763;28;20213;-76
2023/08/25 05:19:16;;;;;;;13.00;7.90;;;23.20;1.00;;;;;;5008040;28;20445;-76
2023/08/25 05:21:42;;;;;;;7.70;6.90;;;23.40;1.00;;;;;;5008274;28;20265;-76
2023/08/25 05:24:25;;;;;;;8.73;6.77;;;23.50;1.00;;;;;;5007389;28;20212;-75
2023/08/25 05:26:51;;;;;;;10.50;7.90;;;23.50;1.00;;;;;;5012637;28;20698;-76
2023/08/25 05:29:21;;;;;;;8.60;6.50;;;23.40;1.00;;;;;;5006420;28;20445;-75
2023/08/25 05:31:47;;;;;;;9.20;6.80;;;23.30;1.00;;;;;;5008370;28;20451;-74
2023/08/25 05:34:14;;;;;;;8.60;6.77;;;23.20;1.00;;;;;;5009057;28;20585;-78
2023/08/25 05:36:40;;;;;;;9.13;6.53;;;23.00;1.00;;;;;;5011317;28;20201;-81
2023/08/25 05:39:05;;;;;;;9.80;6.77;;;23.00;1.00;;;;;;5013940;28;20949;-75
2023/08/25 05:41:31;;;;;;;24.00;9.00;;;22.90;1.00;;;;;;5010017;28;20521;-73
2023/08/25 05:50:40;;;;;;;24.97;13.50;;;21.50;1.00;;;;;;5013455;28;20434;-75
2023/08/25 05:53:06;;;;;;;19.47;10.80;;;21.20;1.00;;;;;;5010133;28;20445;-75
2023/08/25 05:55:31;;;;;;;17.40;11.63;;;21.20;1.00;;;;;;5012773;28;20210;-76
2023/08/25 05:57:57;;;;;;;18.63;12.77;;;21.10;1.00;;;;;;5003919;28;20661;-75
2023/08/25 06:00:22;;;;;;;15.80;11.23;;;21.20;1.00;;;;;;5011097;28;20205;-76
2023/08/25 06:02:48;;;;;;;18.30;12.10;;;21.20;1.00;;;;;;5010591;28;20617;-79
2023/08/25 06:05:14;;;;;;;21.20;12.50;;;21.20;1.00;;;;;;5009931;28;20213;-76
2023/08/25 06:07:39;;;;;;;20.90;12.10;;;21.20;1.00;;;;;;5009881;28;20829;-77
2023/08/25 06:10:06;;;;;;;22.17;13.60;;;21.20;1.00;;;;;;5011078;28;20240;-79
2023/08/25 06:12:31;;;;;;;19.10;13.47;;;21.20;1.00;;;;;;5016062;28;20264;-77
2023/08/25 06:14:57;;;;;;;17.70;11.50;;;21.20;1.00;;;;;;5016888;28;20515;-75
2023/08/25 06:17:22;;;;;;;26.67;10.67;;;20.60;1.00;;;;;;5014462;28;20205;-78
2023/08/25 06:19:48;;;;;;;14.70;10.80;;;21.20;1.00;;;;;;5014559;28;20185;-75
2023/08/25 06:22:13;;;;;;;16.33;10.70;;;21.20;1.00;;;;;;5016788;28;20265;-74
2023/08/25 06:24:39;;;;;;;15.37;10.33;;;21.20;1.00;;;;;;5016732;28;20206;-75
2023/08/25 06:27:04;;;;;;;18.00;10.20;;;21.10;1.00;;;;;;5017059;28;20251;-74
2023/08/25 06:29:30;;;;;;;11.90;8.73;;;21.00;1.00;;;;;;5021872;28;20518;-77
2023/08/25 06:31:57;;;;;;;13.33;10.17;;;21.00;1.00;;;;;;5015292;28;20560;-76
2023/08/25 06:34:22;;;;;;;17.30;11.17;;;20.90;1.00;;;;;;5015183;28;20182;-77
2023/08/25 06:36:48;;;;;;;22.53;12.97;;;20.90;1.00;;;;;;5008918;28;20825;-75
2023/08/25 06:39:14;;;;;;;19.00;11.87;;;20.80;1.00;;;;;;5015793;28;20237;-71
2023/08/25 06:41:40;;;;;;;15.57;11.90;;;20.80;1.00;;;;;;5021898;28;20683;-73
2023/08/25 06:44:06;;;;;;;16.00;9.80;;;20.40;1.00;;;;;;5015524;28;20702;-72
2023/08/25 06:46:31;;;;;;;13.90;9.77;;;20.40;1.00;;;;;;5006904;28;20217;-74
2023/08/25 06:48:57;;;;;;;14.50;9.90;;;20.40;1.00;;;;;;5014420;28;20185;-73
2023/08/25 06:51:22;;;;;;;15.87;9.60;;;20.30;1.00;;;;;;5014287;28;20761;-74
2023/08/25 06:53:48;;;;;;;11.90;8.40;;;20.40;1.00;;;;;;5014769;28;20225;-74
2023/08/25 06:56:13;;;;;;;13.57;8.67;;;20.50;1.00;;;;;;5018141;28;20242;-75
2023/08/25 06:58:39;;;;;;;11.90;7.97;;;20.50;1.00;;;;;;5014490;28;20661;-74
2023/08/25 07:01:04;;;;;;;11.67;8.33;;;20.60;1.00;;;;;;5014672;28;20198;-75
2023/08/25 07:03:30;;;;;;;12.83;7.83;;;20.40;1.00;;;;;;5014463;28;20206;-74
2023/08/25 07:05:58;;;;;;;18.87;9.93;;;20.40;1.00;;;;;;5008381;28;20279;-73
2023/08/25 07:08:25;;;;;;;12.17;7.80;;;20.40;1.00;;;;;;5014983;28;20282;-75
2023/08/25 07:10:51;;;;;;;18.20;8.30;;;20.30;1.00;;;;;;5016446;28;20433;-74
2023/08/25 07:13:17;;;;;;;15.07;8.30;;;20.30;1.00;;;;;;5020025;28;20465;-74
2023/08/25 07:15:43;;;;;;;8.50;6.50;;;20.20;1.00;;;;;;5014887;28;20507;-74
2023/08/25 07:18:09;;;;;;;12.20;6.70;;;20.20;1.00;;;;;;5015180;28;20210;-76
2023/08/25 07:20:34;;;;;;;11.83;7.00;;;20.20;1.00;;;;;;5012572;28;20614;-74
2023/08/25 07:23:00;;;;;;;10.07;6.90;;;20.30;1.00;;;;;;5012663;28;20485;-76
2023/08/25 07:25:26;;;;;;;15.20;6.80;;;20.30;1.00;;;;;;5015221;28;20297;-73
2023/08/25 07:27:51;;;;;;;11.17;6.17;;;20.30;1.00;;;;;;5012329;28;20322;-74
2023/08/25 07:30:17;;;;;;;7.47;6.10;;;20.30;1.00;;;;;;5011457;28;20194;-74
2023/08/25 07:32:42;;;;;;;11.57;6.30;;;20.20;1.00;;;;;;5011764;28;20194;-73
2023/08/25 07:35:08;;;;;;;10.33;6.37;;;20.20;1.00;;;;;;5011422;28;20194;-74
2023/08/25 07:37:34;;;;;;;7.00;5.33;;;20.30;1.00;;;;;;5010342;28;20209;-72
2023/08/25 07:40:00;;;;;;;9.40;6.63;;;20.40;1.00;;;;;;5011672;28;20424;-74
2023/08/25 07:42:26;;;;;;;8.93;5.70;;;20.50;1.00;;;;;;5010991;28;20242;-76
2023/08/25 07:44:52;;;;;;;9.00;6.37;;;20.60;1.00;;;;;;5011632;28;20236;-74
2023/08/25 07:47:18;;;;;;;8.33;5.00;;;20.60;1.00;;;;;;5010560;28;21045;-76
2023/08/25 07:49:43;;;;;;;8.17;5.80;;;20.60;1.00;;;;;;5012141;28;20213;-74
2023/08/25 07:52:09;;;;;;;14.53;5.27;;;20.50;1.00;;;;;;5012634;28;20190;-75
2023/08/25 07:54:34;;;;;;;10.50;5.90;;;20.50;1.00;;;;;;5013325;28;20237;-73
2023/08/25 07:57:00;;;;;;;11.27;6.40;;;20.50;1.00;;;;;;5012224;28;20232;-73
2023/08/25 07:59:25;;;;;;;7.70;6.30;;;20.60;1.00;;;;;;5010227;28;20186;-73
2023/08/25 08:01:51;;;;;;;11.57;7.53;;;20.60;1.00;;;;;;5008644;28;20220;-75
2023/08/25 08:04:16;;;;;;;11.37;7.10;;;20.70;1.00;;;;;;5014532;28;20237;-74
2023/08/25 08:06:42;;;;;;;9.03;6.60;;;20.80;1.00;;;;;;5012686;28;20206;-76
2023/08/25 08:09:08;;;;;;;9.47;6.90;;;21.10;1.00;;;;;;5013045;28;20718;-75
2023/08/25 08:11:34;;;;;;;10.00;6.80;;;20.90;1.00;;;;;;5005606;28;20186;-75
2023/08/25 08:14:00;;;;;;;8.73;6.30;;;20.90;1.00;;;;;;5010792;28;20572;-74
2023/08/25 08:16:26;;;;;;;12.40;6.50;;;20.80;1.00;;;;;;5012348;28;20468;-76
2023/08/25 08:18:52;;;;;;;12.77;7.23;;;20.90;1.00;;;;;;5011699;28;20185;-75
2023/08/25 08:21:18;;;;;;;8.83;6.40;;;20.90;1.00;;;;;;5007502;28;20475;-75
2023/08/25 08:23:43;;;;;;;7.67;6.63;;;20.90;1.00;;;;;;5007390;28;20465;-74
2023/08/25 08:26:09;;;;;;;9.20;7.00;;;20.90;1.00;;;;;;5012653;28;20614;-76
2023/08/25 08:28:34;;;;;;;9.17;6.87;;;20.80;1.00;;;;;;5016038;28;20174;-74
2023/08/25 08:31:05;;;;;;;15.43;6.40;;;21.00;1.00;;;;;;5013574;28;20190;-75
2023/08/25 08:33:31;;;;;;;8.27;5.80;;;;;;;;;;5008058;28;20178;-73
2023/08/25 08:35:57;;;;;;;8.03;5.40;;;21.20;1.00;;;;;;5018702;28;20479;-73
2023/08/25 08:38:23;;;;;;;13.53;5.27;;;21.20;1.00;;;;;;5014874;28;20461;-73
2023/08/25 08:40:49;;;;;;;8.27;5.03;;;21.20;1.00;;;;;;5020024;28;20679;-74
2023/08/25 08:43:16;;;;;;;7.50;4.83;;;;;;;;;;5007270;28;20204;-73
2023/08/25 08:45:42;;;;;;;10.67;5.37;;;21.40;1.00;;;;;;5009686;28;20484;-73
2023/08/25 08:48:09;;;;;;;10.60;5.40;;;21.50;1.00;;;;;;5006919;28;20963;-78
2023/08/25 08:50:35;;;;;;;7.90;5.30;;;21.60;1.00;;;;;;5003890;28;21022;-75
2023/08/25 08:53:01;;;;;;;7.20;5.10;;;21.70;1.00;;;;;;5015256;28;20487;-76
2023/08/25 08:55:27;;;;;;;7.23;5.17;;;22.10;1.00;;;;;;5012694;28;20464;-75
2023/08/25 08:57:53;;;;;;;6.43;4.97;;;22.20;1.00;;;;;;5006984;28;20186;-75
2023/08/25 09:00:19;;;;;;;7.23;4.90;;;22.40;1.00;;;;;;5002743;28;20508;-75
2023/08/25 09:02:51;;;;;;;7.33;4.87;;;22.70;1.00;;;;;;5010067;28;20201;-74
2023/08/25 09:05:21;;;;;;;7.00;4.90;;;23.10;1.00;;;;;;5011766;28;20490;-76
2023/08/25 09:07:52;;;;;;;7.20;4.70;;;23.00;1.00;;;;;;5009548;28;21017;-77
2023/08/25 09:10:17;;;;;;;13.17;4.30;;;23.20;1.00;;;;;;5008714;28;20440;-77
2023/08/25 09:12:43;;;;;;;6.47;4.00;;;23.30;1.00;;;;;;5009156;28;21134;-77
2023/08/25 09:15:22;;;;;;;7.13;4.10;;;23.60;1.00;;;;;;5011707;28;20224;-76
2023/08/25 09:18:01;;;;;;;6.40;4.30;;;23.70;1.00;;;;;;5009870;28;20269;-77
2023/08/25 09:20:28;;;;;;;6.07;3.97;;;24.20;1.00;;;;;;5009698;28;20538;-76
2023/08/25 09:22:55;;;;;;;5.73;4.23;;;25.00;1.00;;;;;;5005460;28;20488;-77
2023/08/25 09:25:21;;;;;;;5.10;3.67;;;25.10;1.00;;;;;;5012641;28;20436;-76
2023/08/25 09:27:47;;;;;;;8.40;3.83;;;25.10;1.00;;;;;;5009936;28;20432;-77
2023/08/25 09:30:12;;;;;;;8.03;3.53;;;25.20;1.00;;;;;;5009449;28;20240;-76
2023/08/25 09:32:38;;;;;;;6.60;3.80;;;25.10;1.00;;;;;;5010298;28;20258;-77
2023/08/25 09:35:14;;;;;;;10.67;3.90;;;25.20;1.00;;;;;;5006624;28;20254;-79
2023/08/25 09:37:43;;;;;;;9.80;3.50;;;25.30;1.00;;;;;;5008888;28;20197;-77
2023/08/25 09:40:14;;;;;;;5.67;3.60;;;25.40;1.00;;;;;;5009210;28;20815;-77
2023/08/25 09:42:40;;;;;;;6.00;3.53;;;25.70;1.00;;;;;;5006849;28;20583;-76
2023/08/25 09:45:06;;;;;;;4.90;3.40;;;25.90;1.00;;;;;;5009659;28;20441;-76
2023/08/25 09:47:32;;;;;;;5.67;3.73;;;26.20;1.00;;;;;;5007368;28;20252;-77
2023/08/25 09:49:58;;;;;;;5.10;3.27;;;26.70;1.00;;;;;;5007401;28;20464;-76
2023/08/25 09:52:29;;;;;;;4.70;3.40;;;26.70;1.00;;;;;;5012431;28;20181;-77
2023/08/25 09:54:55;;;;;;;4.90;3.17;;;27.00;1.00;;;;;;5014047;28;20436;-75
2023/08/25 09:57:23;;;;;;;6.03;3.43;;;27.20;1.00;;;;;;5011698;28;20880;-77
2023/08/25 09:59:49;;;;;;;7.50;3.57;;;27.60;1.00;;;;;;5008356;28;20687;-76
2023/08/25 10:02:15;;;;;;;6.37;3.40;;;28.20;1.00;;;;;;5011841;28;20448;-76
2023/08/25 10:04:41;;;;;;;4.53;2.90;;;29.10;1.00;;;;;;5010339;28;20206;-77
2023/08/25 10:07:07;;;;;;;5.20;3.00;;;29.20;1.00;;;;;;5008002;28;20202;-77
2023/08/25 10:09:33;;;;;;;5.80;2.90;;;29.10;1.00;;;;;;5007800;28;20197;-77
2023/08/25 10:11:59;;;;;;;4.23;3.17;;;28.60;1.00;;;;;;5008997;28;20240;-74
2023/08/25 10:14:27;;;;;;;4.53;2.83;;;28.00;1.00;;;;;;5004849;28;20609;-76
2023/08/25 10:16:53;;;;;;;7.70;3.47;;;27.60;1.00;;;;;;5007380;28;20260;-76
2023/08/25 10:19:26;;;;;;;7.30;3.40;;;27.10;1.00;;;;;;5017582;28;20194;-76
2023/08/25 10:21:53;;;;;;;7.93;3.20;;;26.80;1.00;;;;;;5014136;28;20192;-77
2023/08/25 10:24:20;;;;;;;6.50;3.50;;;26.30;1.00;;;;;;5021523;28;20599;-77
2023/08/25 10:26:47;;;;;;;4.37;3.03;;;25.80;1.00;;;;;;5014239;28;20523;-76
2023/08/25 10:29:16;;;;;;;4.87;3.60;;;25.70;1.00;;;;;;5015070;28;20459;-76
2023/08/25 10:31:46;;;;;;;7.33;3.87;;;25.60;1.00;;;;;;5000117;28;20429;-76
2023/08/25 10:34:33;;;;;;;5.17;3.67;;;25.30;1.00;;;;;;5013763;28;20938;-76
2023/08/25 10:37:10;;;;;;;6.20;4.03;;;25.30;1.00;;;;;;5009591;28;20510;-76
2023/08/25 10:39:45;;;;;;;9.40;3.67;;;25.50;1.00;;;;;;5006463;28;21677;-77
2023/08/25 10:42:11;;;;;;;6.03;4.20;;;25.60;1.00;;;;;;5010197;28;20446;-74
2023/08/25 10:44:41;;;;;;;8.20;3.90;;;25.80;1.00;;;;;;5009973;28;20464;-75
2023/08/25 10:47:06;;;;;;;4.83;3.50;;;26.00;1.00;;;;;;5005293;28;20212;-78
2023/08/25 10:49:38;;;;;;;7.20;3.50;;;26.30;1.00;;;;;;5008795;28;20920;-76
2023/08/25 10:52:19;;;;;;;5.30;3.73;;;26.30;1.00;;;;;;5013641;28;20672;-75
2023/08/25 10:54:47;;;;;;;7.37;3.90;;;26.20;1.00;;;;;;5005503;28;20440;-78
2023/08/25 10:57:27;;;;;;;6.57;3.93;;;26.40;1.00;;;;;;5016465;28;20461;-74
2023/08/25 11:00:17;;;;;;;8.93;4.20;;;26.70;1.00;;;;;;5006727;28;20517;-76
2023/08/25 11:02:42;;;;;;;5.60;4.30;;;26.80;1.00;;;;;;5011789;28;20672;-78
2023/08/25 11:05:26;;;;;;;6.50;4.30;;;27.20;1.00;;;;;;5016821;28;20509;-77
2023/08/25 11:07:53;;;;;;;5.17;4.00;;;27.40;1.00;;;;;;5020597;28;20201;-75
2023/08/25 11:10:21;;;;;;;11.67;4.30;;;27.40;1.00;;;;;;5020236;28;20433;-78
2023/08/25 11:12:51;;;;;;;7.73;4.00;;;27.80;1.00;;;;;;5026328;28;20247;-77
2023/08/25 11:15:17;;;;;;;6.73;4.20;;;29.10;1.00;;;;;;5015383;28;20441;-80
2023/08/25 11:17:43;;;;;;;5.30;3.97;;;29.00;1.00;;;;;;5013630;28;20448;-77
2023/08/25 11:20:09;;;;;;;5.47;3.73;;;30.60;1.00;;;;;;5009350;28;20715;-79
2023/08/25 11:22:34;;;;;;;4.65;3.60;;;32.20;1.00;;;;;;5014776;28;20186;-77
2023/08/25 11:25:00;;;;;;;5.38;3.75;;;33.20;1.00;;;;;;5018036;28;20209;-76
2023/08/25 11:27:25;;;;;;;6.63;3.85;;;32.20;1.00;;;;;;5029676;28;20205;-76
2023/08/25 11:30:06;;;;;;;6.55;3.53;;;32.60;1.00;;;;;;5012701;28;20196;-78
2023/08/25 11:32:32;;;;;;;7.28;3.90;;;31.90;1.00;;;;;;5012444;28;20292;-77
2023/08/25 11:35:02;;;;;;;5.78;4.18;;;32.10;1.00;;;;;;5014835;28;20182;-78
2023/08/25 11:37:28;;;;;;;4.78;3.80;;;31.90;1.00;;;;;;5013454;28;20269;-77
2023/08/25 11:39:53;;;;;;;4.75;3.80;;;31.40;1.00;;;;;;5021276;28;20201;-78
2023/08/25 11:42:21;;;;;;;7.57;4.32;;;31.00;1.00;;;;;;5030892;28;20185;-76
2023/08/25 11:44:47;;;;;;;4.20;3.50;;;30.70;1.00;;;;;;5013739;28;20555;-75
2023/08/25 11:47:13;;;;;;;6.43;4.07;;;31.00;1.00;;;;;;5016619;28;20603;-72
2023/08/25 11:49:41;;;;;;;6.82;3.80;;;30.70;1.00;;;;;;5004726;28;20185;-73
2023/08/25 11:52:08;;;;;;;6.65;4.10;;;30.30;1.00;;;;;;5014076;28;20178;-74
2023/08/25 11:54:46;;;;;;;6.53;4.38;;;29.80;1.00;;;;;;5013574;28;20248;-71
2023/08/25 11:57:12;;;;;;;5.80;4.30;;;28.90;1.00;;;;;;5024832;28;20209;-72
2023/08/25 11:59:49;;;;;;;7.63;4.40;;;28.40;1.00;;;;;;5012012;28;20360;-73
2023/08/25 12:02:16;;;;;;;7.43;4.40;;;28.00;1.00;;;;;;5012767;28;20195;-74
2023/08/25 12:04:55;;;;;;;4.80;3.90;;;27.80;1.00;;;;;;5021380;28;20209;-74
2023/08/25 12:07:24;;;;;;;7.30;3.93;;;27.80;1.00;;;;;;5015911;28;20205;-77
2023/08/25 12:09:57;;;;;;;8.70;4.60;;;27.50;1.00;;;;;;5004954;28;20194;-79
2023/08/25 12:12:23;;;;;;;7.43;4.63;;;27.30;1.00;;;;;;5012910;28;20174;-77
2023/08/25 12:14:53;;;;;;;9.40;5.03;;;27.20;1.00;;;;;;5011906;28;20186;-79
2023/08/25 12:17:24;;;;;;;9.73;4.30;;;27.10;1.00;;;;;;5014703;28;20715;-78
2023/08/25 12:19:50;;;;;;;6.93;4.13;;;27.00;1.00;;;;;;5015856;28;20200;-76
2023/08/25 12:22:16;;;;;;;7.97;4.40;;;27.00;1.00;;;;;;5020961;28;20437;-75
2023/08/25 12:24:42;;;;;;;6.03;4.40;;;27.00;1.00;;;;;;5009503;28;20202;-77
2023/08/25 12:27:08;;;;;;;5.17;4.27;;;;;;;;;;5009740;28;20256;-78
2023/08/25 12:29:34;;;;;;;6.60;4.63;;;;;;;;;;5009340;28;20429;-76
2023/08/25 12:32:00;;;;;;;6.13;4.27;;;26.80;1.00;;;;;;5015626;28;20527;-77
2023/08/25 12:34:26;;;;;;;7.17;4.60;;;26.80;1.00;;;;;;5005741;28;20465;-77
2023/08/25 12:36:51;;;;;;;6.03;4.67;;;26.80;1.00;;;;;;5015547;28;20652;-76
2023/08/25 12:39:18;;;;;;;8.30;5.27;;;26.70;1.00;;;;;;5013427;28;20201;-77
2023/08/25 12:41:44;;;;;;;9.20;5.00;;;26.80;1.00;;;;;;5013930;28;20178;-77
2023/08/25 12:44:10;;;;;;;8.07;4.53;;;26.80;1.00;;;;;;5015793;28;21096;-76
2023/08/25 12:46:35;;;;;;;7.07;4.20;;;26.80;1.00;;;;;;5010302;28;20758;-77
2023/08/25 12:49:01;;;;;;;7.40;4.40;;;26.90;1.00;;;;;;5011990;28;20174;-77
2023/08/25 12:51:27;;;;;;;7.80;4.50;;;26.80;1.00;;;;;;5013246;28;20174;-76
2023/08/25 12:53:56;;;;;;;8.37;4.47;;;26.90;1.00;;;;;;5013521;28;20447;-77
2023/08/25 12:56:22;;;;;;;8.23;4.73;;;26.70;1.00;;;;;;5013107;28;20654;-76